Time;durP1;ratioP1;P1;durP2;ratioP2;P2;SDS_P1;SDS_P2;PMS_P1;PMS_P2;Temp;Humidity;BMP_temperature;BMP_pressure;BME280_temperature;BME280_humidity;BME280_pressure;Samples;Min_cycle;Max_cycle;Signal;HPM_P1;HPM_P2
2020/12/25 00:00:04;;;;;;;3.00;2.33;;;;;;;5.75;71.75;100707.94;697618;28;44375;-59
2020/12/25 00:00:32;;;;;;;2.72;2.53;;;;;;;5.76;71.71;100705.09;695086;28;136434;-60
2020/12/25 00:00:54;;;;;;;2.55;2.35;;;;;;;5.77;71.70;100709.50;698953;28;22418;-62
2020/12/25 00:01:15;;;;;;;2.60;2.40;;;;;;;5.77;71.75;100709.50;698255;28;44184;-58
2020/12/25 00:01:37;;;;;;;2.63;2.42;;;;;;;5.77;71.78;100700.63;699448;28;23512;-59
2020/12/25 00:01:58;;;;;;;2.63;2.42;;;;;;;5.77;71.66;100703.28;698504;28;33372;-60
2020/12/25 00:02:19;;;;;;;2.50;2.30;;;;;;;5.77;71.43;100706.81;699383;28;21548;-61
2020/12/25 00:02:41;;;;;;;2.70;2.50;;;;;;;5.77;71.59;100705.97;699156;28;22484;-55
2020/12/25 00:03:02;;;;;;;3.00;2.80;;;;;;;5.78;71.60;100705.81;698036;28;45276;-59
2020/12/25 00:03:23;;;;;;;3.00;2.70;;;;;;;5.76;71.66;100702.44;699149;28;22768;-60
2020/12/25 00:03:45;;;;;;;2.75;2.60;;;;;;;5.77;71.71;100714.00;699004;28;23455;-59
2020/12/25 00:04:06;;;;;;;4.60;2.63;;;;;;;5.77;71.63;100712.16;699256;28;23692;-61
2020/12/25 00:04:28;;;;;;;4.63;2.80;;;;;;;5.78;71.70;100710.31;699385;28;21558;-62
2020/12/25 00:04:50;;;;;;;3.13;2.60;;;;;;;5.76;71.70;100705.09;697080;28;67569;-60
2020/12/25 00:05:11;;;;;;;2.45;2.25;;;;;;;5.77;71.65;100703.28;697471;28;44422;-59
2020/12/25 00:05:32;;;;;;;2.90;2.50;;;;;;;5.78;71.78;100711.19;698683;28;22374;-58
2020/12/25 00:05:54;;;;;;;3.92;2.70;;;;;;;5.77;71.72;100705.97;698944;28;22412;-59
2020/12/25 00:06:15;;;;;;;4.40;2.42;;;;;;;5.79;71.66;100712.03;698195;28;46354;-59
2020/12/25 00:06:37;;;;;;;3.22;2.53;;;;;;;5.81;71.66;100711.88;699295;28;21528;-57
2020/12/25 00:06:58;;;;;;;2.58;2.47;;;;;;;5.79;71.43;100709.34;698524;28;46334;-57
2020/12/25 00:07:20;;;;;;;2.75;2.55;;;;;;;5.80;71.71;100704.81;699123;28;23468;-56
2020/12/25 00:07:41;;;;;;;3.30;2.80;;;;;;;5.80;71.52;100704.81;697927;28;44404;-59
2020/12/25 00:08:02;;;;;;;3.00;2.55;;;;;;;5.80;71.63;100715.53;698872;28;22178;-59
2020/12/25 00:08:24;;;;;;;4.15;2.60;;;;;;;5.79;71.67;100712.03;698942;28;23436;-57
2020/12/25 00:08:45;;;;;;;3.05;2.38;;;;;;;5.79;71.28;100703.97;698094;28;46333;-61
2020/12/25 00:09:08;;;;;;;2.75;2.55;;;;;;;5.79;71.73;100706.66;699183;28;23515;-60
2020/12/25 00:09:29;;;;;;;2.90;2.70;;;;;;;5.79;71.81;100709.34;697780;28;53879;-57
2020/12/25 00:09:51;;;;;;;3.10;2.90;;;;;;;5.78;71.67;100703.16;698329;28;23694;-59
2020/12/25 00:10:12;;;;;;;3.40;2.65;;;;;;;5.78;71.68;100707.63;698084;28;44139;-61
2020/12/25 00:10:33;;;;;;;3.10;2.80;;;;;;;5.76;71.65;100707.78;699383;28;23523;-59
2020/12/25 00:10:55;;;;;;;3.20;2.90;;;;;;;5.77;71.56;100706.81;699554;28;1039;-57
2020/12/25 00:11:16;;;;;;;3.40;2.65;;;;;;;5.77;71.58;100712.16;698292;28;47213;-61
2020/12/25 00:11:38;;;;;;;3.33;2.67;;;;;;;5.77;71.71;100706.81;700077;28;2444;-59
2020/12/25 00:11:59;;;;;;;2.72;2.50;;;;;;;5.76;71.57;100705.09;697192;28;46358;-57
2020/12/25 00:12:20;;;;;;;2.95;2.65;;;;;;;5.77;71.72;100706.81;698782;28;22172;-61
2020/12/25 00:12:43;;;;;;;3.30;3.00;;;;;;;5.77;71.87;100714.84;698833;28;23439;-58
2020/12/25 00:13:05;;;;;;;3.60;2.90;;;;;;;5.77;71.77;100714.84;697611;28;70113;-58
2020/12/25 00:13:26;;;;;;;3.72;2.58;;;;;;;5.77;71.90;100714.84;698041;28;47282;-61
2020/12/25 00:13:47;;;;;;;4.35;2.85;;;;;;;5.77;71.86;100708.66;698738;28;22402;-60
2020/12/25 00:14:08;;;;;;;3.00;2.75;;;;;;;5.76;71.92;100707.78;698766;28;23402;-60
2020/12/25 00:14:30;;;;;;;2.90;2.60;;;;;;;5.76;72.04;100713.16;698936;28;22372;-58
2020/12/25 00:14:51;;;;;;;2.88;2.67;;;;;;;5.76;71.91;100706.94;697997;28;46278;-60
2020/12/25 00:15:12;;;;;;;2.95;2.75;;;;;;;5.77;71.92;100714.84;699247;28;8498;-58
2020/12/25 00:15:34;;;;;;;3.10;2.80;;;;;;;5.77;71.99;100705.97;699330;28;23505;-58
2020/12/25 00:15:55;;;;;;;2.92;2.50;;;;;;;5.77;71.95;100709.50;698343;28;44293;-57
2020/12/25 00:16:24;;;;;;;2.85;2.55;;;;;;;5.77;71.91;100714.00;699312;28;23247;-57
2020/12/25 00:16:45;;;;;;;2.85;2.63;;;;;;;5.77;71.93;100709.50;694893;28;135821;-61
2020/12/25 00:17:06;;;;;;;3.92;2.50;;;;;;;5.75;71.81;100711.47;695882;28;22238;-62
2020/12/25 00:17:28;;;;;;;2.85;2.55;;;;;;;5.76;72.07;100710.47;696271;28;22416;-56
2020/12/25 00:17:49;;;;;;;3.22;2.70;;;;;;;5.77;71.82;100716.69;695548;28;46339;-56
2020/12/25 00:18:11;;;;;;;2.90;2.70;;;;;;;5.76;71.85;100712.31;696295;28;22219;-59
2020/12/25 00:18:32;;;;;;;3.03;2.60;;;;;;;5.76;71.75;100715.81;696086;28;23568;-60
2020/12/25 00:18:53;;;;;;;2.90;2.60;;;;;;;5.76;71.88;100710.47;695707;28;46112;-55
2020/12/25 00:19:15;;;;;;;3.03;2.55;;;;;;;5.75;71.99;100716.84;698929;28;21241;-62
2020/12/25 00:19:37;;;;;;;4.40;2.72;;;;;;;5.76;71.77;100706.94;698061;28;44195;-61
2020/12/25 00:19:58;;;;;;;3.42;2.92;;;;;;;5.75;71.98;100719.53;697963;28;44412;-60
2020/12/25 00:20:19;;;;;;;2.92;2.72;;;;;;;5.75;72.06;100715.97;699274;28;23423;-57
2020/12/25 00:20:41;;;;;;;3.95;2.75;;;;;;;5.75;72.10;100719.53;699128;28;22380;-60
2020/12/25 00:21:02;;;;;;;4.95;2.88;;;;;;;5.75;71.86;100722.19;697760;28;45345;-59
2020/12/25 00:21:24;;;;;;;3.20;2.83;;;;;;;5.75;72.08;100726.69;698738;28;22408;-60
2020/12/25 00:21:45;;;;;;;3.00;2.65;;;;;;;5.74;72.00;100717.81;699638;28;940;-61
2020/12/25 00:22:07;;;;;;;3.42;3.13;;;;;;;5.75;71.89;100722.19;699014;28;21539;-58
2020/12/25 00:22:28;;;;;;;5.45;2.97;;;;;;;5.74;71.95;100725.84;698495;28;46341;-60
2020/12/25 00:22:49;;;;;;;4.00;2.80;;;;;;;5.75;72.06;100722.19;699301;28;24350;-59
2020/12/25 00:23:11;;;;;;;3.47;2.92;;;;;;;5.75;71.99;100724.00;698531;28;46389;-55
2020/12/25 00:23:32;;;;;;;4.20;2.92;;;;;;;5.76;72.01;100717.69;699236;28;21565;-54
2020/12/25 00:23:53;;;;;;;3.10;2.80;;;;;;;5.76;72.16;100720.34;698905;28;22156;-55
2020/12/25 00:24:15;;;;;;;3.08;2.78;;;;;;;5.75;71.86;100722.19;698751;28;22418;-59
2020/12/25 00:24:36;;;;;;;3.33;2.60;;;;;;;5.75;71.93;100721.34;698045;28;46354;-53
2020/12/25 00:24:57;;;;;;;6.55;3.00;;;;;;;5.76;72.18;100728.41;698871;28;22420;-54
2020/12/25 00:25:19;;;;;;;4.60;2.70;;;;;;;5.76;71.91;100723.88;699166;28;22376;-62
2020/12/25 00:25:40;;;;;;;3.65;2.83;;;;;;;5.78;71.89;100729.09;698696;28;43136;-54
2020/12/25 00:26:05;;;;;;;3.72;2.63;;;;;;;5.77;71.76;100722.88;699597;28;22580;-60
2020/12/25 00:26:28;;;;;;;3.97;3.00;;;;;;;5.77;71.81;100730.94;698854;28;37869;-60
2020/12/25 00:26:50;;;;;;;3.35;2.70;;;;;;;5.77;71.73;100722.06;697332;28;70029;-58
2020/12/25 00:27:12;;;;;;;3.55;2.40;;;;;;;5.77;71.73;100728.25;698593;28;46311;-61
2020/12/25 00:27:33;;;;;;;3.10;2.83;;;;;;;5.77;71.73;100730.09;698417;28;33590;-61
2020/12/25 00:27:54;;;;;;;2.83;2.55;;;;;;;5.77;71.85;100720.22;698945;28;22381;-58
2020/12/25 00:28:16;;;;;;;3.10;2.80;;;;;;;5.77;71.62;100725.56;696433;28;995;-58
2020/12/25 00:28:39;;;;;;;3.40;2.67;;;;;;;5.77;71.57;100732.78;696422;28;22419;-56
2020/12/25 00:29:02;;;;;;;3.47;2.65;;;;;;;5.77;71.78;100730.94;694349;28;69440;-61
2020/12/25 00:29:23;;;;;;;2.85;2.50;;;;;;;5.77;71.46;100735.44;694778;28;45087;-53
2020/12/25 00:29:45;;;;;;;2.58;2.38;;;;;;;5.77;71.60;100733.59;695789;28;22180;-61
2020/12/25 00:30:06;;;;;;;2.80;2.60;;;;;;;5.76;71.55;100725.72;695534;28;47466;-58
2020/12/25 00:30:27;;;;;;;2.78;2.58;;;;;;;5.78;71.77;100729.09;698635;28;23401;-61
2020/12/25 00:30:49;;;;;;;2.72;2.53;;;;;;;5.77;71.84;100733.59;699481;28;13906;-61
2020/12/25 00:31:10;;;;;;;2.60;2.40;;;;;;;5.77;71.82;100735.44;698221;28;46365;-58
2020/12/25 00:31:33;;;;;;;2.67;2.42;;;;;;;5.76;71.65;100726.53;699280;28;22398;-61
2020/12/25 00:31:54;;;;;;;3.90;2.70;;;;;;;5.77;71.61;100738.97;697459;28;51553;-59
2020/12/25 00:32:15;;;;;;;4.65;2.80;;;;;;;5.76;71.64;100725.72;699024;28;4663;-56
2020/12/25 00:32:36;;;;;;;3.60;2.80;;;;;;;5.75;71.80;100732.91;699213;28;20157;-58
2020/12/25 00:32:58;;;;;;;3.33;2.80;;;;;;;5.77;71.64;100735.44;698674;28;36692;-60
2020/12/25 00:33:19;;;;;;;2.67;2.50;;;;;;;5.76;71.51;100731.06;699319;28;22154;-59
2020/12/25 00:33:41;;;;;;;2.70;2.50;;;;;;;5.76;71.60;100731.06;699230;28;23776;-59
2020/12/25 00:34:03;;;;;;;3.75;2.85;;;;;;;5.76;71.40;100733.75;698491;28;44339;-57
2020/12/25 00:34:24;;;;;;;3.42;2.65;;;;;;;5.76;71.61;100731.91;698114;28;46814;-56
2020/12/25 00:34:47;;;;;;;2.80;2.60;;;;;;;5.77;71.40;100735.44;699217;28;21570;-59
2020/12/25 00:35:08;;;;;;;3.05;2.50;;;;;;;5.77;71.54;100727.41;697002;28;70337;-56
2020/12/25 00:35:29;;;;;;;2.33;2.13;;;;;;;5.77;71.86;100730.09;698659;28;22321;-57
2020/12/25 00:35:51;;;;;;;2.58;2.38;;;;;;;5.76;71.40;100731.91;698851;28;23480;-53
2020/12/25 00:36:12;;;;;;;3.33;2.50;;;;;;;5.78;71.41;100732.63;698199;28;37287;-58
2020/12/25 00:36:34;;;;;;;2.70;2.50;;;;;;;5.78;71.55;100734.44;698824;28;22385;-59
2020/12/25 00:36:56;;;;;;;2.90;2.70;;;;;;;5.78;71.34;100732.63;697545;28;67568;-56
2020/12/25 00:37:17;;;;;;;2.78;2.40;;;;;;;5.80;71.38;100734.28;698131;28;46413;-59
2020/12/25 00:37:38;;;;;;;3.65;2.60;;;;;;;5.80;71.31;100734.28;699418;28;22431;-57
2020/12/25 00:37:59;;;;;;;3.22;2.50;;;;;;;5.80;71.28;100736.97;699378;28;22361;-58
2020/12/25 00:38:21;;;;;;;3.65;2.50;;;;;;;5.78;71.40;100735.31;698767;28;23426;-58
2020/12/25 00:38:42;;;;;;;2.55;2.30;;;;;;;5.80;71.40;100731.63;698015;28;46383;-57
2020/12/25 00:39:06;;;;;;;2.72;2.50;;;;;;;5.80;71.32;100728.94;698660;28;22366;-61
2020/12/25 00:39:27;;;;;;;2.80;2.50;;;;;;;5.80;71.31;100740.53;696415;28;92188;-60
2020/12/25 00:39:49;;;;;;;3.10;2.70;;;;;;;5.80;71.46;100736.97;698956;28;21535;-59
2020/12/25 00:40:10;;;;;;;2.85;2.65;;;;;;;5.79;71.34;100736.16;697987;28;45263;-60
2020/12/25 00:40:31;;;;;;;2.60;2.40;;;;;;;5.80;71.38;100743.19;699214;28;22422;-58
2020/12/25 00:40:53;;;;;;;2.88;2.67;;;;;;;5.80;71.30;100742.34;698190;28;47170;-60
2020/12/25 00:41:14;;;;;;;4.05;2.47;;;;;;;5.80;71.39;100739.66;698862;28;23858;-60
2020/12/25 00:41:40;;;;;;;3.53;2.30;;;;;;;5.79;71.30;100736.16;699973;28;23465;-61
2020/12/25 00:42:01;;;;;;;3.10;2.47;;;;;;;5.80;71.31;100740.53;694883;28;139135;-59
2020/12/25 00:42:22;;;;;;;3.10;2.90;;;;;;;5.81;71.18;100741.34;699273;28;23552;-59
2020/12/25 00:42:43;;;;;;;2.95;2.75;;;;;;;5.81;71.46;100741.34;698061;28;21310;-57
2020/12/25 00:43:05;;;;;;;3.23;2.70;;;;;;;5.80;71.38;100737.84;698717;28;22434;-60
2020/12/25 00:43:26;;;;;;;2.83;2.35;;;;;;;5.81;71.41;100736.84;698167;28;46415;-60
2020/12/25 00:43:48;;;;;;;2.70;2.50;;;;;;;5.81;71.53;100738.69;697661;28;22419;-58
2020/12/25 00:44:09;;;;;;;2.72;2.53;;;;;;;5.81;71.29;100741.34;697602;28;45332;-58
2020/12/25 00:44:32;;;;;;;3.63;2.60;;;;;;;5.80;71.44;100736.97;696726;28;46488;-61
2020/12/25 00:44:53;;;;;;;3.35;2.50;;;;;;;5.81;71.24;100741.34;697766;28;46586;-62
2020/12/25 00:45:14;;;;;;;3.17;2.70;;;;;;;5.80;71.27;100737.84;698000;28;22566;-56
2020/12/25 00:45:37;;;;;;;3.03;2.67;;;;;;;5.81;71.34;100741.34;699029;28;19693;-58
2020/12/25 00:45:58;;;;;;;2.85;2.40;;;;;;;5.81;71.16;100741.34;695933;28;67501;-60
2020/12/25 00:46:20;;;;;;;2.60;2.40;;;;;;;5.80;71.27;100739.66;695832;28;21475;-59
2020/12/25 00:46:43;;;;;;;2.95;2.40;;;;;;;5.81;71.24;100744.03;694802;28;69441;-60
2020/12/25 00:47:05;;;;;;;3.85;2.50;;;;;;;5.80;71.23;100747.69;694915;28;45303;-60
2020/12/25 00:47:26;;;;;;;4.13;2.40;;;;;;;5.78;71.15;100740.66;694914;28;46426;-55
2020/12/25 00:47:48;;;;;;;2.55;2.35;;;;;;;5.82;71.30;100746.56;693523;28;18377;-60
2020/12/25 00:48:09;;;;;;;3.45;2.60;;;;;;;5.82;71.26;100743.06;694402;28;45340;-57
2020/12/25 00:48:32;;;;;;;3.78;2.45;;;;;;;5.82;71.27;100743.06;695431;28;21289;-58
2020/12/25 00:48:53;;;;;;;3.40;2.67;;;;;;;5.81;71.27;100746.72;691713;28;69679;-59
2020/12/25 00:49:17;;;;;;;3.65;2.45;;;;;;;5.81;71.19;100744.03;688534;28;68321;-58
2020/12/25 00:49:39;;;;;;;3.13;2.53;;;;;;;5.80;71.26;100742.34;689807;28;45331;-60
2020/12/25 00:50:01;;;;;;;2.60;2.40;;;;;;;5.80;71.19;100747.69;687460;28;46297;-62
2020/12/25 00:50:23;;;;;;;3.90;2.20;;;;;;;5.80;71.29;100745.88;687539;28;69514;-58
2020/12/25 00:50:44;;;;;;;2.60;2.33;;;;;;;5.80;71.01;100745.00;691534;28;24609;-61
2020/12/25 00:51:11;;;;;;;2.65;2.45;;;;;;;5.78;71.02;100747.84;692776;28;45280;-59
2020/12/25 00:51:33;;;;;;;2.42;2.22;;;;;;;5.77;71.08;100752.38;689985;28;138235;-61
2020/12/25 00:51:55;;;;;;;3.53;2.53;;;;;;;5.79;71.02;100752.22;693606;28;44379;-54
2020/12/25 00:52:16;;;;;;;2.90;2.60;;;;;;;5.80;71.18;100750.38;694337;28;19202;-56
2020/12/25 00:52:38;;;;;;;2.55;2.35;;;;;;;5.78;71.07;100754.06;694427;28;22383;-60
2020/12/25 00:53:00;;;;;;;2.97;2.50;;;;;;;5.79;71.15;100754.91;693737;28;44365;-57
2020/12/25 00:53:21;;;;;;;2.55;2.38;;;;;;;5.78;71.32;100754.06;694386;28;43554;-58
2020/12/25 00:53:42;;;;;;;2.60;2.40;;;;;;;5.77;71.23;100755.03;695397;28;22263;-58
2020/12/25 00:54:05;;;;;;;3.03;2.40;;;;;;;5.77;71.24;100760.41;692860;28;9338;-61
2020/12/25 00:54:40;;;;;;;3.10;2.50;;;;;;;5.80;71.08;100753.06;690363;28;109474;-62
2020/12/25 00:55:11;;;;;;;2.60;2.40;;;;;;;5.80;70.94;100761.09;689010;28;137573;-57
2020/12/25 00:55:33;;;;;;;2.80;2.60;;;;;;;5.80;71.01;100761.09;690755;28;44385;-61
2020/12/25 00:55:55;;;;;;;4.80;2.53;;;;;;;5.80;71.06;100764.66;692043;28;45313;-59
2020/12/25 00:56:16;;;;;;;3.60;2.53;;;;;;;5.79;71.04;100754.91;694715;28;12530;-60
2020/12/25 00:56:42;;;;;;;2.70;2.50;;;;;;;5.81;70.97;100765.47;691167;28;111254;-59
2020/12/25 00:57:04;;;;;;;2.47;2.28;;;;;;;5.80;70.94;100763.78;691102;28;39354;-59
2020/12/25 00:57:43;;;;;;;3.67;2.50;;;;;;;5.80;70.79;100769.13;688182;28;137737;-61
2020/12/25 00:58:10;;;;;;;3.05;2.40;;;;;;;5.80;71.15;100766.47;687999;28;138731;-57
2020/12/25 00:58:32;;;;;;;2.58;2.35;;;;;;;5.78;70.92;100767.47;686109;28;1266;-59
2020/12/25 00:58:53;;;;;;;2.78;2.30;;;;;;;5.80;71.01;100769.13;685603;28;45143;-58
2020/12/25 00:59:21;;;;;;;2.83;2.40;;;;;;;5.80;71.06;100763.78;683196;28;133870;-59
2020/12/25 00:59:43;;;;;;;3.75;2.70;;;;;;;5.80;70.77;100766.47;690266;28;9164;-61
2020/12/25 01:00:05;;;;;;;2.50;2.30;;;;;;;5.80;70.74;100767.31;690112;28;44415;-60
2020/12/25 01:00:26;;;;;;;2.33;2.13;;;;;;;5.79;70.87;100768.31;696097;28;40556;-61
2020/12/25 01:00:47;;;;;;;2.80;2.20;;;;;;;5.79;70.96;100768.31;698990;28;19965;-57
2020/12/25 01:01:10;;;;;;;2.60;2.40;;;;;;;5.77;70.62;100768.44;698915;28;21555;-59
2020/12/25 01:01:31;;;;;;;2.83;2.63;;;;;;;5.80;70.79;100771.81;696955;28;69400;-59
2020/12/25 01:01:52;;;;;;;3.10;2.50;;;;;;;5.80;70.62;100771.81;698504;28;15718;-61
2020/12/25 01:02:14;;;;;;;3.60;2.40;;;;;;;5.77;70.87;100765.78;699236;28;23505;-61
2020/12/25 01:02:35;;;;;;;3.35;2.40;;;;;;;5.78;70.68;100766.59;697755;28;45224;-59
2020/12/25 01:02:57;;;;;;;2.47;2.27;;;;;;;5.80;70.82;100772.69;699056;28;22493;-59
2020/12/25 01:03:18;;;;;;;2.40;2.20;;;;;;;5.80;70.64;100763.78;698407;28;46816;-61
2020/12/25 01:03:40;;;;;;;2.30;2.10;;;;;;;5.81;70.68;100765.47;698469;28;20872;-59
2020/12/25 01:04:01;;;;;;;2.60;2.15;;;;;;;5.81;70.73;100768.16;698985;28;16965;-58
2020/12/25 01:04:27;;;;;;;3.10;2.40;;;;;;;5.81;70.70;100768.16;698503;28;60894;-60
2020/12/25 01:04:49;;;;;;;2.47;2.20;;;;;;;5.78;70.78;100770.16;700081;28;916;-57
2020/12/25 01:05:11;;;;;;;3.38;2.47;;;;;;;5.78;70.74;100772.81;695092;28;1658;-60
2020/12/25 01:05:32;;;;;;;3.45;2.67;;;;;;;5.78;70.64;100771.97;694627;28;46124;-59
2020/12/25 01:05:54;;;;;;;3.63;2.35;;;;;;;5.79;70.79;100773.66;695109;28;22406;-53
2020/12/25 01:06:17;;;;;;;2.20;2.10;;;;;;;5.78;70.78;100772.81;694601;28;46415;-58
2020/12/25 01:06:38;;;;;;;2.88;2.10;;;;;;;5.77;70.92;100776.50;693669;28;69543;-59
2020/12/25 01:06:59;;;;;;;2.53;2.10;;;;;;;5.75;70.80;100770.44;696473;28;22423;-60
2020/12/25 01:07:21;;;;;;;2.30;2.10;;;;;;;5.77;70.62;100772.97;699702;28;21675;-61
2020/12/25 01:07:42;;;;;;;2.20;2.10;;;;;;;5.77;70.89;100779.16;698956;28;43734;-58
2020/12/25 01:08:04;;;;;;;2.20;2.00;;;;;;;5.76;70.58;100780.16;698931;28;22461;-59
2020/12/25 01:08:25;;;;;;;2.20;2.00;;;;;;;5.77;70.79;100781.00;698525;28;46345;-60
2020/12/25 01:08:48;;;;;;;2.42;2.15;;;;;;;5.75;70.88;100778.47;699407;28;23495;-61
2020/12/25 01:09:09;;;;;;;2.33;2.13;;;;;;;5.74;70.82;100782.13;697850;28;69439;-60
2020/12/25 01:09:31;;;;;;;3.25;2.25;;;;;;;5.74;70.96;100782.13;699642;28;14123;-58
2020/12/25 01:09:52;;;;;;;2.67;2.22;;;;;;;5.74;70.80;100782.13;698574;28;45259;-57
2020/12/25 01:10:13;;;;;;;3.22;2.40;;;;;;;5.75;71.03;100778.47;698642;28;24262;-58
2020/12/25 01:10:34;;;;;;;3.45;2.50;;;;;;;5.76;70.97;100784.69;699389;28;23626;-61
2020/12/25 01:10:56;;;;;;;2.35;2.17;;;;;;;5.75;70.97;100783.84;699847;28;21548;-62
2020/12/25 01:11:17;;;;;;;2.00;1.90;;;;;;;5.75;71.01;100778.47;698615;28;45401;-59
2020/12/25 01:11:39;;;;;;;2.35;2.25;;;;;;;5.76;70.87;100787.34;699564;28;23463;-57
2020/12/25 01:12:02;;;;;;;2.60;2.10;;;;;;;5.76;70.85;100784.69;698337;28;47260;-61
2020/12/25 01:12:24;;;;;;;2.88;2.28;;;;;;;5.78;70.89;100790.72;697826;28;67510;-60
2020/12/25 01:12:45;;;;;;;3.35;2.35;;;;;;;5.78;70.95;100788.03;698923;28;44160;-59
2020/12/25 01:13:06;;;;;;;2.97;2.20;;;;;;;5.77;70.93;100789.06;699576;28;22386;-59
2020/12/25 01:13:27;;;;;;;2.10;2.00;;;;;;;5.78;70.71;100788.91;698909;28;22405;-61
2020/12/25 01:13:49;;;;;;;2.35;2.15;;;;;;;5.78;70.87;100788.91;699648;28;22151;-61
2020/12/25 01:14:10;;;;;;;2.38;2.17;;;;;;;5.79;70.82;100787.06;698408;28;46326;-60
2020/12/25 01:14:31;;;;;;;2.25;2.05;;;;;;;5.77;70.64;100789.88;699333;28;21530;-60
2020/12/25 01:14:53;;;;;;;2.15;1.92;;;;;;;5.79;70.60;100792.44;699066;28;46533;-59
2020/12/25 01:15:14;;;;;;;2.50;2.00;;;;;;;5.80;70.62;100795.94;699079;28;23506;-58
2020/12/25 01:15:36;;;;;;;2.90;2.10;;;;;;;5.78;70.60;100788.03;699363;28;21557;-60
2020/12/25 01:16:01;;;;;;;2.08;1.98;;;;;;;5.78;70.69;100793.41;698946;28;47289;-60
2020/12/25 01:16:22;;;;;;;2.72;2.08;;;;;;;5.78;70.70;100796.09;696043;28;114529;-59
2020/12/25 01:16:43;;;;;;;3.35;2.17;;;;;;;5.78;70.68;100794.28;699308;28;21550;-60
2020/12/25 01:17:05;;;;;;;2.40;1.90;;;;;;;5.78;70.68;100791.59;698922;28;44392;-60
2020/12/25 01:17:26;;;;;;;2.00;1.90;;;;;;;5.76;70.60;100793.53;700423;28;898;-61
2020/12/25 01:17:49;;;;;;;2.13;2.03;;;;;;;5.76;70.71;100800.75;699669;28;22422;-58
2020/12/25 01:18:10;;;;;;;2.30;2.20;;;;;;;5.76;70.88;100798.06;697611;28;69564;-57
2020/12/25 01:18:32;;;;;;;4.07;2.30;;;;;;;5.76;70.74;100790.88;699334;28;22412;-59
2020/12/25 01:18:53;;;;;;;2.65;2.17;;;;;;;5.75;70.73;100793.69;698610;28;43774;-58
2020/12/25 01:19:15;;;;;;;2.38;2.20;;;;;;;5.77;70.94;100789.06;699643;28;22053;-60
2020/12/25 01:19:36;;;;;;;2.10;1.90;;;;;;;5.77;70.94;100791.72;700589;28;879;-57
2020/12/25 01:19:57;;;;;;;2.20;2.10;;;;;;;5.75;70.73;100797.25;699543;28;23452;-60
2020/12/25 01:20:19;;;;;;;2.88;2.22;;;;;;;5.76;70.76;100796.22;699081;28;23487;-58
2020/12/25 01:20:41;;;;;;;2.88;2.20;;;;;;;5.76;70.72;100796.22;698523;28;46337;-59
2020/12/25 01:21:02;;;;;;;2.33;2.13;;;;;;;5.76;70.83;100796.22;698896;28;43975;-59
2020/12/25 01:21:24;;;;;;;3.63;2.10;;;;;;;5.77;70.65;100799.78;698939;28;42654;-59
2020/12/25 01:21:45;;;;;;;3.45;2.05;;;;;;;5.76;70.64;100798.91;699546;28;21082;-60
2020/12/25 01:22:06;;;;;;;2.80;2.10;;;;;;;5.75;70.76;100799.91;699578;28;23464;-61
2020/12/25 01:22:28;;;;;;;2.30;2.10;;;;;;;5.76;70.68;100796.22;699538;28;20582;-58
2020/12/25 01:22:49;;;;;;;2.60;2.10;;;;;;;5.76;70.65;100798.91;698432;28;46360;-61
2020/12/25 01:23:10;;;;;;;2.13;2.00;;;;;;;5.76;70.63;100798.91;698780;28;22599;-57
2020/12/25 01:23:32;;;;;;;2.55;2.33;;;;;;;5.77;70.67;100803.28;699279;28;21523;-59
2020/12/25 01:23:53;;;;;;;2.10;1.90;;;;;;;5.76;70.74;100803.44;698999;28;44396;-61
2020/12/25 01:24:14;;;;;;;2.25;2.05;;;;;;;5.77;70.62;100799.78;699630;28;21518;-59
2020/12/25 01:24:36;;;;;;;2.55;2.00;;;;;;;5.77;70.67;100802.47;698810;28;46329;-59
2020/12/25 01:24:57;;;;;;;3.15;2.08;;;;;;;5.78;70.62;100806.81;699685;28;23275;-59
2020/12/25 01:25:18;;;;;;;2.20;2.00;;;;;;;5.80;70.70;100803.97;699163;28;23498;-60
2020/12/25 01:25:40;;;;;;;2.20;2.10;;;;;;;5.80;70.63;100809.34;699803;28;23338;-59
2020/12/25 01:26:01;;;;;;;2.40;2.20;;;;;;;5.79;70.73;100805.81;699012;28;28160;-59
2020/12/25 01:26:23;;;;;;;3.20;2.08;;;;;;;5.80;70.57;100809.34;699311;28;22397;-58
2020/12/25 01:26:44;;;;;;;2.15;2.05;;;;;;;5.80;70.47;100809.34;698541;28;46129;-61
2020/12/25 01:27:06;;;;;;;2.30;2.10;;;;;;;5.79;70.75;100805.81;699640;28;21343;-60
2020/12/25 01:27:27;;;;;;;2.22;1.98;;;;;;;5.81;70.64;100811.03;698892;28;44422;-60
2020/12/25 01:27:48;;;;;;;2.20;2.00;;;;;;;5.80;70.45;100809.34;700216;28;8484;-59
2020/12/25 01:28:11;;;;;;;2.28;2.17;;;;;;;5.78;70.39;100810.34;699850;28;854;-60
2020/12/25 01:28:32;;;;;;;2.85;2.28;;;;;;;5.77;70.50;100805.97;699453;28;30492;-59
2020/12/25 01:29:01;;;;;;;2.10;2.00;;;;;;;5.80;70.56;100814.69;699574;28;20856;-59
2020/12/25 01:29:23;;;;;;;2.97;2.03;;;;;;;5.80;70.35;100806.66;698238;28;60144;-61
2020/12/25 01:29:44;;;;;;;2.15;1.95;;;;;;;5.77;70.43;100811.34;700033;28;15456;-57
2020/12/25 01:30:06;;;;;;;2.10;1.98;;;;;;;5.76;70.44;100808.78;699801;28;4053;-60
2020/12/25 01:30:27;;;;;;;1.98;1.88;;;;;;;5.76;70.40;100808.78;699448;28;25201;-61
2020/12/25 01:30:49;;;;;;;2.03;1.90;;;;;;;5.75;70.53;100805.28;699654;28;22476;-59
2020/12/25 01:31:10;;;;;;;2.17;2.08;;;;;;;5.76;70.69;100817.66;699226;28;36646;-60
2020/12/25 01:31:32;;;;;;;2.47;2.15;;;;;;;5.75;70.64;100810.63;699282;28;18632;-61
2020/12/25 01:31:53;;;;;;;2.20;2.10;;;;;;;5.74;70.62;100811.63;698313;28;41647;-61
2020/12/25 01:32:14;;;;;;;2.20;2.10;;;;;;;5.74;70.71;100814.28;699655;28;23513;-60
2020/12/25 01:32:35;;;;;;;2.00;1.90;;;;;;;5.75;70.61;100815.13;698946;28;23413;-60
2020/12/25 01:32:56;;;;;;;2.50;1.92;;;;;;;5.73;70.58;100815.28;699630;28;22348;-58
2020/12/25 01:33:18;;;;;;;2.72;2.05;;;;;;;5.72;70.68;100816.28;699778;28;16464;-59
2020/12/25 01:33:40;;;;;;;1.85;1.75;;;;;;;5.72;70.69;100807.38;698921;28;44413;-61
2020/12/25 01:34:01;;;;;;;1.88;1.77;;;;;;;5.72;70.60;100810.94;698820;28;32052;-56
2020/12/25 01:34:22;;;;;;;2.20;2.00;;;;;;;5.73;70.70;100809.09;699922;28;23363;-57
2020/12/25 01:34:44;;;;;;;2.60;2.08;;;;;;;5.72;70.59;100810.06;698509;28;44424;-57
2020/12/25 01:35:05;;;;;;;2.17;1.90;;;;;;;5.72;70.82;100813.59;698746;28;21254;-59
2020/12/25 01:35:28;;;;;;;2.10;2.00;;;;;;;5.72;70.59;100810.06;698679;28;46129;-59
2020/12/25 01:35:49;;;;;;;2.00;1.85;;;;;;;5.71;70.72;100814.59;698849;28;44368;-59
2020/12/25 01:36:10;;;;;;;2.67;1.90;;;;;;;5.72;70.78;100812.75;699718;28;3342;-57
2020/12/25 01:36:32;;;;;;;3.28;2.00;;;;;;;5.71;70.65;100809.22;698377;28;46364;-57
2020/12/25 01:36:53;;;;;;;2.20;2.00;;;;;;;5.71;70.75;100811.06;699288;28;22940;-59
2020/12/25 01:37:14;;;;;;;2.90;2.10;;;;;;;5.71;70.70;100811.91;698993;28;22381;-58
2020/12/25 01:37:35;;;;;;;2.53;1.98;;;;;;;5.72;70.83;100812.75;700297;28;900;-60
2020/12/25 01:37:57;;;;;;;2.20;2.00;;;;;;;5.71;70.66;100811.91;698209;28;45251;-58
2020/12/25 01:38:18;;;;;;;1.92;1.83;;;;;;;5.72;70.63;100807.38;699656;28;21401;-59
2020/12/25 01:38:40;;;;;;;2.50;2.00;;;;;;;5.71;70.72;100817.25;699647;28;22388;-58
2020/12/25 01:39:01;;;;;;;2.50;1.90;;;;;;;5.71;70.83;100811.91;698800;28;46349;-58
2020/12/25 01:39:23;;;;;;;1.85;1.75;;;;;;;5.71;70.85;100814.59;699028;28;23355;-59
2020/12/25 01:39:44;;;;;;;2.08;1.92;;;;;;;5.72;70.84;100816.28;700017;28;1191;-60
2020/12/25 01:40:05;;;;;;;2.10;2.00;;;;;;;5.72;70.60;100808.25;699163;28;23451;-61
2020/12/25 01:40:27;;;;;;;2.00;1.90;;;;;;;5.73;70.74;100820.63;699582;28;23483;-58
2020/12/25 01:40:48;;;;;;;2.08;1.88;;;;;;;5.74;70.53;100819.66;698913;28;46335;-61
2020/12/25 01:41:10;;;;;;;2.20;2.00;;;;;;;5.76;70.65;100822.19;699455;28;22725;-59
2020/12/25 01:41:31;;;;;;;1.90;1.80;;;;;;;5.76;70.68;100819.50;698502;28;44365;-58
2020/12/25 01:41:52;;;;;;;1.85;1.75;;;;;;;5.75;70.54;100820.50;699229;28;10962;-58
2020/12/25 01:42:13;;;;;;;3.25;1.60;;;;;;;5.75;70.40;100826.72;699177;28;21340;-58
2020/12/25 01:42:35;;;;;;;1.90;1.80;;;;;;;5.75;70.32;100818.69;698899;28;21930;-58
2020/12/25 01:42:57;;;;;;;2.30;2.10;;;;;;;5.77;70.37;100822.06;698412;28;46466;-58
2020/12/25 01:43:18;;;;;;;2.00;1.90;;;;;;;5.78;70.37;100814.84;698471;28;46310;-59
2020/12/25 01:43:39;;;;;;;2.03;1.92;;;;;;;5.77;70.22;100818.53;699337;28;23283;-58
2020/12/25 01:44:00;;;;;;;2.00;1.90;;;;;;;5.77;69.98;100823.91;699366;28;21420;-58